Weather at Mary International Airport

Public forecast

Using degrees Celsius for public forecast. Weather courtesy of forecast.io.

Current aviation weather report (METAR) for Mary International Airport

2024/05/28 03:00 (retrieved 25 minutes ago)

UTAM 280300Z 00000KT CAVOK 21/05 Q1015 R88/CLRD70 NOSIG

Closest aviation forecast (TAF) to Mary International Airport

Forecast is more than 6 hours old.

Closest forecast is Awantipura Air Force Station, 675.2 nm (1,250.4 km) ESE.

2024/05/27 18:00 (retrieved 9 hours ago)

TAF VIAW 270930Z 2718/2812 VRB02KT 6000 FEW025 TEMPO 2809/2812 29010KT 6000 FEW025 FEW030CB SCT090